createdAt,value
2023-09-27T00:00:11.033Z,57.32
2023-09-27T00:02:42.070Z,57.78
2023-09-27T00:05:11.963Z,57.68
2023-09-27T00:07:40.501Z,57.76
2023-09-27T00:10:11.486Z,58.10
2023-09-27T00:12:39.390Z,58.22
2023-09-27T00:15:09.097Z,58.33
2023-09-27T00:17:36.365Z,58.30
2023-09-27T00:20:04.842Z,58.48
2023-09-27T00:22:32.580Z,58.51
2023-09-27T00:25:00.572Z,58.31
2023-09-27T00:27:27.641Z,58.60
2023-09-27T00:29:54.863Z,58.60
2023-09-27T00:32:22.369Z,58.83
2023-09-27T00:34:49.652Z,58.97
2023-09-27T00:37:16.896Z,59.02
2023-09-27T00:39:43.920Z,59.24
2023-09-27T00:42:11.254Z,59.25
2023-09-27T00:44:38.429Z,59.25
2023-09-27T00:47:06.016Z,59.61
2023-09-27T00:49:33.213Z,59.72
2023-09-27T00:52:00.380Z,59.60
2023-09-27T00:54:28.115Z,59.74
2023-09-27T00:56:55.250Z,59.98
2023-09-27T00:59:22.500Z,59.98
2023-09-27T01:01:49.665Z,60.01
2023-09-27T01:04:17.424Z,60.09
2023-09-27T01:06:45.187Z,59.96
2023-09-27T01:09:15.458Z,60.11
2023-09-27T01:11:43.374Z,60.29
2023-09-27T01:14:10.662Z,60.01
2023-09-27T01:16:38.110Z,60.33
2023-09-27T01:19:05.569Z,60.26
2023-09-27T01:21:32.797Z,60.37
2023-09-27T01:23:59.839Z,60.43
2023-09-27T01:26:28.265Z,60.43
2023-09-27T01:28:56.462Z,60.49
2023-09-27T01:31:23.743Z,60.51
2023-09-27T01:33:51.178Z,60.30
2023-09-27T01:36:19.864Z,60.42
2023-09-27T01:38:46.900Z,60.26
2023-09-27T01:41:14.747Z,60.29
2023-09-27T01:43:41.832Z,60.32
2023-09-27T01:46:08.901Z,60.46
2023-09-27T01:48:36.158Z,60.40
2023-09-27T01:51:04.041Z,60.30
2023-09-27T01:53:31.134Z,60.44
2023-09-27T01:55:58.248Z,60.56
2023-09-27T01:58:25.271Z,60.56
2023-09-27T02:00:52.360Z,60.75
2023-09-27T02:03:21.635Z,60.60
2023-09-27T02:05:48.962Z,60.68
2023-09-27T02:08:17.087Z,60.87
2023-09-27T02:10:45.143Z,60.92
2023-09-27T02:13:12.545Z,61.15
2023-09-27T02:15:40.077Z,61.23
2023-09-27T02:18:07.371Z,61.32
2023-09-27T02:20:34.521Z,61.29
2023-09-27T02:23:01.685Z,61.26
2023-09-27T02:25:29.030Z,61.38
2023-09-27T02:27:56.113Z,61.43
2023-09-27T02:30:23.176Z,61.37
2023-09-27T02:32:50.257Z,61.46
2023-09-27T02:35:20.760Z,61.61
2023-09-27T02:37:48.213Z,61.88
2023-09-27T02:40:16.838Z,61.72
2023-09-27T02:42:45.247Z,61.72
2023-09-27T02:45:13.057Z,61.99
2023-09-27T02:47:40.998Z,62.08
2023-09-27T02:50:11.709Z,62.00
2023-09-27T02:52:41.806Z,62.26
2023-09-27T02:55:12.101Z,62.26
2023-09-27T02:57:39.786Z,62.55
2023-09-27T03:00:08.164Z,62.61
2023-09-27T03:02:36.662Z,62.60
2023-09-27T03:05:07.307Z,62.81
2023-09-27T03:07:39.587Z,62.89
2023-09-27T03:10:14.016Z,63.14
2023-09-27T03:12:42.057Z,63.07
2023-09-27T03:15:13.969Z,63.13
2023-09-27T03:17:43.958Z,63.30
2023-09-27T03:20:20.814Z,63.43
2023-09-27T03:22:49.527Z,63.47
2023-09-27T03:25:20.067Z,63.58
2023-09-27T03:27:47.761Z,63.62
2023-09-27T03:30:15.889Z,63.70
2023-09-27T03:32:44.052Z,63.86
2023-09-27T03:35:11.272Z,63.88
2023-09-27T03:37:39.393Z,64.05
2023-09-27T03:40:17.007Z,64.35
2023-09-27T03:42:45.651Z,64.44
2023-09-27T03:45:14.260Z,64.73
2023-09-27T03:47:44.313Z,64.64
2023-09-27T03:50:13.724Z,64.74
2023-09-27T03:52:41.875Z,64.80
2023-09-27T03:55:09.892Z,64.88
2023-09-27T03:57:38.806Z,64.90
2023-09-27T04:00:15.439Z,65.04
2023-09-27T04:02:44.810Z,65.22
2023-09-27T04:05:12.678Z,65.21
2023-09-27T04:07:43.456Z,65.42
2023-09-27T04:10:36.575Z,65.68
2023-09-27T04:13:04.446Z,65.51
2023-09-27T04:15:31.916Z,65.49
2023-09-27T04:17:59.106Z,65.51
2023-09-27T04:20:26.822Z,65.53
2023-09-27T04:22:53.888Z,65.70
2023-09-27T04:25:21.360Z,65.55
2023-09-27T04:27:51.101Z,65.84
2023-09-27T04:30:20.876Z,66.17
2023-09-27T04:32:52.840Z,66.45
2023-09-27T04:35:21.271Z,66.20
2023-09-27T04:37:48.655Z,66.06
2023-09-27T04:40:15.891Z,66.16
2023-09-27T04:42:43.238Z,66.09
2023-09-27T04:45:14.158Z,66.05
2023-09-27T04:47:42.083Z,66.52
2023-09-27T04:50:13.374Z,66.45
2023-09-27T04:52:41.147Z,66.56
2023-09-27T04:55:10.073Z,66.56
2023-09-27T04:57:37.886Z,66.66
2023-09-27T05:00:07.279Z,66.69
2023-09-27T05:02:34.716Z,66.70
2023-09-27T05:05:02.007Z,66.35
2023-09-27T05:07:30.772Z,66.29
2023-09-27T05:09:57.974Z,66.25
2023-09-27T05:12:25.497Z,66.45
2023-09-27T05:14:52.778Z,66.37
2023-09-27T05:17:19.971Z,66.78
2023-09-27T05:19:47.032Z,66.64
2023-09-27T05:22:15.675Z,66.92
2023-09-27T05:24:42.754Z,66.84
2023-09-27T05:27:09.924Z,66.73
2023-09-27T05:29:37.192Z,66.64
2023-09-27T05:32:04.671Z,66.66
2023-09-27T05:34:33.396Z,66.20
2023-09-27T05:37:00.620Z,65.96
2023-09-27T05:39:27.868Z,66.18
2023-09-27T05:41:54.986Z,65.93
2023-09-27T05:44:22.111Z,66.09
2023-09-27T05:46:49.799Z,66.10
2023-09-27T05:49:18.152Z,66.08
2023-09-27T05:51:45.739Z,65.72
2023-09-27T05:54:12.749Z,65.76
2023-09-27T05:56:39.857Z,65.55
2023-09-27T05:59:10.041Z,65.60
2023-09-27T06:01:37.607Z,65.27
2023-09-27T06:04:05.211Z,65.01
2023-09-27T06:06:33.772Z,64.69
2023-09-27T06:09:01.161Z,64.61
2023-09-27T06:11:29.172Z,64.42
2023-09-27T06:13:56.406Z,64.60
2023-09-27T06:16:24.019Z,64.12
2023-09-27T06:18:51.796Z,64.30
2023-09-27T06:21:19.002Z,64.47
2023-09-27T06:23:46.213Z,64.63
2023-09-27T06:26:13.934Z,64.47
2023-09-27T06:28:41.410Z,64.19
2023-09-27T06:31:08.690Z,63.88
2023-09-27T06:33:39.670Z,63.86
2023-09-27T06:36:11.091Z,64.09
2023-09-27T06:38:38.225Z,64.06
2023-09-27T06:41:05.509Z,63.83
2023-09-27T06:43:32.916Z,63.44
2023-09-27T06:46:02.805Z,63.21
2023-09-27T06:48:30.534Z,62.91
2023-09-27T06:50:57.782Z,63.15
2023-09-27T06:53:29.870Z,63.23
2023-09-27T06:56:00.284Z,63.40
2023-09-27T06:58:27.438Z,63.29
2023-09-27T07:00:55.972Z,63.10
2023-09-27T07:03:26.867Z,62.79
2023-09-27T07:05:54.729Z,62.71
2023-09-27T07:08:22.388Z,62.49
2023-09-27T07:10:50.307Z,62.51
2023-09-27T07:13:17.908Z,62.26
2023-09-27T07:15:49.237Z,61.78
2023-09-27T07:18:16.586Z,61.66
2023-09-27T07:20:43.925Z,60.82
2023-09-27T07:23:16.416Z,61.16
2023-09-27T07:25:44.449Z,60.69
2023-09-27T07:28:11.982Z,60.63
2023-09-27T07:30:39.673Z,60.69
2023-09-27T07:33:13.375Z,60.26
2023-09-27T07:35:44.360Z,60.09
2023-09-27T07:38:15.351Z,60.47
2023-09-27T07:40:46.784Z,60.25
2023-09-27T07:43:15.509Z,59.57
2023-09-27T07:45:44.620Z,59.78
2023-09-27T07:48:12.008Z,59.29
2023-09-27T07:50:39.999Z,58.99
2023-09-27T07:53:08.109Z,58.35
2023-09-27T07:55:44.635Z,57.82
2023-09-27T07:58:13.897Z,57.93
2023-09-27T08:00:41.813Z,57.80
2023-09-27T08:03:09.524Z,57.90
2023-09-27T08:05:54.690Z,57.28
2023-09-27T08:08:22.862Z,57.48
2023-09-27T08:10:51.281Z,57.50
2023-09-27T08:13:18.974Z,58.16
2023-09-27T08:15:50.584Z,58.00
2023-09-27T08:18:17.817Z,56.94
2023-09-27T08:20:45.280Z,56.96
2023-09-27T08:23:12.992Z,57.01
2023-09-27T08:25:40.306Z,55.91
2023-09-27T08:28:07.961Z,55.90
2023-09-27T08:30:35.208Z,55.50
2023-09-27T08:33:02.622Z,54.55
2023-09-27T08:35:30.338Z,54.98
2023-09-27T08:37:57.656Z,54.90
2023-09-27T08:40:25.027Z,54.90
2023-09-27T08:42:57.210Z,54.52
2023-09-27T08:45:24.695Z,54.65
2023-09-27T08:47:52.428Z,54.44
2023-09-27T08:50:19.995Z,53.90
2023-09-27T08:52:50.707Z,54.30
2023-09-27T08:55:19.216Z,53.63
2023-09-27T08:57:47.704Z,53.36
2023-09-27T09:00:16.224Z,53.58
2023-09-27T09:02:45.064Z,52.51
2023-09-27T09:05:15.283Z,52.74
2023-09-27T09:07:45.869Z,52.00
2023-09-27T09:10:44.588Z,52.50
2023-09-27T09:13:12.384Z,51.82
2023-09-27T09:15:43.103Z,51.61
2023-09-27T09:18:16.445Z,51.45
2023-09-27T09:20:56.312Z,49.82
2023-09-27T09:23:36.681Z,50.13
2023-09-27T09:26:13.072Z,49.19
2023-09-27T09:28:54.376Z,49.86
2023-09-27T09:31:26.487Z,49.23
2023-09-27T09:34:07.191Z,47.82
2023-09-27T09:36:35.072Z,48.06
2023-09-27T09:39:14.773Z,47.32
2023-09-27T09:41:50.143Z,47.15
2023-09-27T09:44:21.858Z,46.58
2023-09-27T09:46:49.642Z,45.85
2023-09-27T09:49:17.318Z,45.48
2023-09-27T09:51:48.998Z,45.35
2023-09-27T09:54:32.024Z,46.02
2023-09-27T09:57:07.997Z,44.59
2023-09-27T09:59:46.572Z,44.87
2023-09-27T10:02:24.536Z,44.15
2023-09-27T10:04:57.624Z,44.55
2023-09-27T10:07:25.055Z,44.33
2023-09-27T10:09:53.585Z,43.61
2023-09-27T10:12:22.584Z,43.52
2023-09-27T10:14:50.140Z,43.21
2023-09-27T10:17:22.032Z,43.44
2023-09-27T10:20:21.272Z,42.67
2023-09-27T10:22:49.539Z,42.97
2023-09-27T10:25:28.978Z,42.65
2023-09-27T10:28:16.605Z,43.28
2023-09-27T10:30:46.625Z,43.36
2023-09-27T10:33:17.271Z,42.91
2023-09-27T10:35:48.367Z,43.27
2023-09-27T10:38:17.208Z,43.23
2023-09-27T10:40:45.517Z,41.92
2023-09-27T10:43:42.272Z,41.92
2023-09-27T10:46:09.727Z,41.64
2023-09-27T10:48:43.829Z,40.81
2023-09-27T10:51:11.020Z,41.05
2023-09-27T10:53:38.691Z,40.25
2023-09-27T10:56:05.903Z,40.49
2023-09-27T10:58:33.380Z,40.55
2023-09-27T11:01:05.993Z,40.55
2023-09-27T11:03:34.687Z,40.62
2023-09-27T11:06:12.301Z,40.16
2023-09-27T11:08:41.504Z,39.85
2023-09-27T11:11:10.932Z,39.45
2023-09-27T11:13:45.136Z,37.84
2023-09-27T11:16:16.073Z,38.79
2023-09-27T11:18:47.679Z,39.69
2023-09-27T11:21:15.346Z,39.53
2023-09-27T11:23:55.740Z,39.86
2023-09-27T11:26:24.158Z,40.07
2023-09-27T11:29:03.606Z,39.30
2023-09-27T11:31:32.615Z,39.38
2023-09-27T11:34:19.824Z,39.87
2023-09-27T11:36:47.548Z,39.42
2023-09-27T11:39:15.202Z,39.67
2023-09-27T11:41:43.238Z,39.51
2023-09-27T11:44:20.587Z,39.05
2023-09-27T11:46:50.834Z,39.13
2023-09-27T11:49:19.135Z,39.18
2023-09-27T11:51:46.655Z,38.91
2023-09-27T11:54:14.060Z,39.29
2023-09-27T11:56:47.656Z,39.34
2023-09-27T11:59:15.760Z,39.10
2023-09-27T12:01:42.971Z,39.38
2023-09-27T12:04:10.476Z,39.59
2023-09-27T12:06:38.940Z,38.72
2023-09-27T12:09:06.614Z,38.49
2023-09-27T12:11:34.741Z,38.10
2023-09-27T12:14:02.510Z,38.45
2023-09-27T12:16:30.149Z,38.39
2023-09-27T12:18:57.308Z,38.74
2023-09-27T12:21:25.212Z,38.86
2023-09-27T12:23:52.661Z,38.20
2023-09-27T12:26:20.052Z,38.45
2023-09-27T12:28:48.071Z,38.37
2023-09-27T12:31:15.736Z,38.19
2023-09-27T12:33:43.134Z,38.25
2023-09-27T12:36:10.765Z,38.33
2023-09-27T12:38:38.177Z,38.69
2023-09-27T12:41:09.140Z,38.70
2023-09-27T12:43:36.483Z,38.62
2023-09-27T12:46:04.094Z,38.75
2023-09-27T12:48:35.336Z,38.67
2023-09-27T12:51:03.302Z,38.40
2023-09-27T12:53:31.208Z,38.32
2023-09-27T12:55:58.614Z,38.45
2023-09-27T12:58:25.996Z,38.68
2023-09-27T13:00:53.284Z,39.12
2023-09-27T13:03:20.831Z,39.63
2023-09-27T13:05:50.290Z,39.45
2023-09-27T13:08:17.635Z,39.13
2023-09-27T13:10:45.689Z,39.08
2023-09-27T13:13:13.216Z,39.30
2023-09-27T13:15:40.942Z,39.14
2023-09-27T13:18:09.682Z,39.39
2023-09-27T13:20:37.220Z,39.69
2023-09-27T13:23:04.745Z,39.79
2023-09-27T13:25:31.972Z,39.63
2023-09-27T13:27:59.358Z,38.82
2023-09-27T13:30:35.527Z,38.97
2023-09-27T13:33:04.547Z,39.06
2023-09-27T13:35:35.056Z,38.85
2023-09-27T13:38:07.405Z,38.89
2023-09-27T13:40:35.622Z,38.69
2023-09-27T13:43:03.171Z,39.27
2023-09-27T13:45:30.948Z,39.23
2023-09-27T13:47:58.567Z,39.58
2023-09-27T13:50:26.239Z,39.53
2023-09-27T13:52:53.545Z,39.88
2023-09-27T13:55:22.908Z,40.13
2023-09-27T13:57:50.396Z,40.00
2023-09-27T14:00:18.814Z,39.86
2023-09-27T14:02:46.765Z,40.34
2023-09-27T14:05:14.218Z,40.20
2023-09-27T14:07:43.374Z,40.07
2023-09-27T14:10:37.012Z,40.31
2023-09-27T14:13:04.693Z,40.19
2023-09-27T14:15:32.560Z,40.64
2023-09-27T14:17:59.888Z,40.24
2023-09-27T14:20:27.824Z,40.04
2023-09-27T14:22:57.326Z,40.20
2023-09-27T14:25:26.354Z,40.39
2023-09-27T14:27:54.482Z,40.20
2023-09-27T14:30:21.901Z,40.70
2023-09-27T14:32:49.585Z,41.31
2023-09-27T14:35:17.384Z,41.38
2023-09-27T14:37:44.603Z,41.65
2023-09-27T14:40:12.420Z,41.36
2023-09-27T14:42:41.245Z,41.12
2023-09-27T14:45:20.182Z,41.29
2023-09-27T14:47:52.679Z,41.17
2023-09-27T14:50:20.162Z,41.18
2023-09-27T14:52:47.870Z,41.05
2023-09-27T14:55:16.576Z,41.86
2023-09-27T14:57:43.812Z,42.23
2023-09-27T15:00:13.284Z,42.85
2023-09-27T15:02:42.839Z,42.24
2023-09-27T15:05:12.410Z,42.09
2023-09-27T15:07:40.086Z,42.23
2023-09-27T15:10:33.283Z,43.54
2023-09-27T15:13:01.740Z,43.67
2023-09-27T15:15:29.438Z,44.37
2023-09-27T15:17:56.691Z,44.54
2023-09-27T15:20:24.028Z,44.91
2023-09-27T15:22:51.571Z,45.59
2023-09-27T15:25:18.961Z,46.09
2023-09-27T15:27:46.774Z,46.45
2023-09-27T15:30:13.965Z,46.90
2023-09-27T15:32:41.246Z,47.18
2023-09-27T15:35:09.107Z,47.51
2023-09-27T15:37:36.446Z,48.10
2023-09-27T15:40:06.540Z,48.16
2023-09-27T15:42:33.771Z,48.30
2023-09-27T15:45:04.735Z,48.88
2023-09-27T15:47:34.062Z,49.14
2023-09-27T15:50:01.283Z,49.05
2023-09-27T15:52:31.303Z,49.50
2023-09-27T15:54:59.244Z,49.30
2023-09-27T15:57:26.579Z,49.78
2023-09-27T15:59:53.965Z,49.61
2023-09-27T16:02:21.204Z,50.05
2023-09-27T16:04:52.749Z,49.71
2023-09-27T16:07:21.746Z,50.37
2023-09-27T16:09:49.184Z,50.22
2023-09-27T16:12:17.709Z,50.41
2023-09-27T16:14:45.105Z,50.56
2023-09-27T16:17:12.513Z,51.00
2023-09-27T16:19:40.797Z,51.10
2023-09-27T16:22:08.003Z,51.12
2023-09-27T16:24:35.128Z,51.40
2023-09-27T16:27:02.381Z,51.77
2023-09-27T16:29:29.777Z,51.45
2023-09-27T16:31:58.567Z,51.66
2023-09-27T16:34:26.618Z,51.77
2023-09-27T16:36:53.828Z,51.92
2023-09-27T16:39:21.048Z,52.04
2023-09-27T16:41:48.319Z,52.04
2023-09-27T16:44:15.811Z,52.35
2023-09-27T16:46:43.089Z,52.35
2023-09-27T16:49:10.935Z,52.49
2023-09-27T16:51:38.343Z,52.53
2023-09-27T16:54:05.615Z,52.48
2023-09-27T16:56:33.416Z,52.72
2023-09-27T16:59:01.022Z,52.63
2023-09-27T17:01:28.707Z,53.03
2023-09-27T17:03:56.474Z,52.74
2023-09-27T17:06:24.211Z,52.99
2023-09-27T17:08:51.440Z,53.12
2023-09-27T17:11:24.536Z,53.34
2023-09-27T17:13:52.489Z,53.33
2023-09-27T17:16:27.778Z,53.60
2023-09-27T17:18:55.713Z,53.51
2023-09-27T17:21:23.668Z,53.52
2023-09-27T17:23:51.291Z,53.70
2023-09-27T17:26:19.011Z,53.79
2023-09-27T17:28:46.284Z,53.61
2023-09-27T17:31:13.871Z,53.90
2023-09-27T17:33:42.603Z,54.16
2023-09-27T17:36:10.418Z,54.45
2023-09-27T17:38:38.551Z,54.39
2023-09-27T17:41:05.843Z,54.64
2023-09-27T17:43:35.291Z,54.82
2023-09-27T17:46:02.790Z,54.65
2023-09-27T17:48:30.424Z,54.77
2023-09-27T17:50:57.895Z,55.07
2023-09-27T17:53:25.368Z,54.90
2023-09-27T17:55:53.025Z,55.04
2023-09-27T17:58:20.801Z,54.96
2023-09-27T18:00:49.245Z,55.19
2023-09-27T18:03:16.574Z,55.38
2023-09-27T18:05:43.854Z,55.35
2023-09-27T18:08:11.437Z,55.32
2023-09-27T18:10:45.228Z,55.60
2023-09-27T18:13:12.602Z,55.82
2023-09-27T18:15:40.804Z,55.59
2023-09-27T18:18:07.922Z,56.08
2023-09-27T18:20:38.637Z,56.07
2023-09-27T18:23:06.036Z,56.35
2023-09-27T18:25:33.379Z,56.34
2023-09-27T18:28:01.004Z,56.33
2023-09-27T18:30:28.141Z,56.67
2023-09-27T18:32:55.293Z,56.67
2023-09-27T18:35:22.676Z,56.81
2023-09-27T18:37:49.802Z,56.85
2023-09-27T18:40:19.745Z,57.24
2023-09-27T18:42:46.842Z,57.34
2023-09-27T18:45:14.194Z,57.55
2023-09-27T18:47:41.741Z,57.23
2023-09-27T18:50:09.316Z,57.49
2023-09-27T18:52:36.589Z,57.64
2023-09-27T18:55:04.269Z,57.59
2023-09-27T18:57:31.860Z,57.69
2023-09-27T18:59:59.235Z,58.25
2023-09-27T19:02:26.537Z,58.26
2023-09-27T19:04:54.160Z,58.23
2023-09-27T19:07:21.737Z,58.41
2023-09-27T19:09:49.429Z,58.66
2023-09-27T19:12:17.022Z,58.61
2023-09-27T19:14:45.630Z,58.59
2023-09-27T19:17:12.738Z,58.86
2023-09-27T19:19:45.061Z,58.75
2023-09-27T19:22:12.464Z,58.82
2023-09-27T19:24:39.573Z,59.00
2023-09-27T19:27:06.887Z,58.70
2023-09-27T19:29:34.052Z,59.10
2023-09-27T19:32:01.589Z,59.41
2023-09-27T19:34:28.800Z,59.44
2023-09-27T19:36:55.940Z,59.59
2023-09-27T19:39:23.224Z,59.93
2023-09-27T19:41:51.110Z,59.74
2023-09-27T19:44:19.133Z,59.84
2023-09-27T19:46:46.787Z,59.84
2023-09-27T19:49:14.251Z,59.85
2023-09-27T19:51:41.441Z,59.93
2023-09-27T19:54:09.832Z,59.86
2023-09-27T19:56:36.959Z,60.06
2023-09-27T19:59:04.842Z,60.03
2023-09-27T20:01:33.122Z,60.04
2023-09-27T20:04:00.535Z,59.95
2023-09-27T20:06:29.062Z,60.13
2023-09-27T20:08:56.616Z,59.97
2023-09-27T20:11:24.931Z,60.00
2023-09-27T20:13:52.752Z,60.05
2023-09-27T20:16:20.287Z,60.18
2023-09-27T20:18:47.681Z,60.25
2023-09-27T20:21:14.732Z,60.24
2023-09-27T20:23:42.036Z,60.34
2023-09-27T20:26:09.355Z,60.40
2023-09-27T20:28:37.322Z,60.42
2023-09-27T20:31:04.717Z,60.59
2023-09-27T20:33:31.937Z,60.50
2023-09-27T20:35:59.194Z,60.57
2023-09-27T20:38:26.811Z,60.38
2023-09-27T20:40:54.046Z,60.37
2023-09-27T20:43:21.076Z,60.67
2023-09-27T20:45:48.300Z,60.48
2023-09-27T20:48:15.438Z,60.43
2023-09-27T20:50:42.574Z,60.50
2023-09-27T20:53:09.760Z,60.50
2023-09-27T20:55:36.793Z,60.43
2023-09-27T20:58:04.719Z,60.21
2023-09-27T21:00:31.899Z,60.30
2023-09-27T21:02:59.113Z,60.29
2023-09-27T21:05:26.327Z,60.10
2023-09-27T21:07:54.242Z,60.20
2023-09-27T21:10:22.281Z,60.17
2023-09-27T21:12:49.521Z,59.94
2023-09-27T21:15:16.549Z,60.02
2023-09-27T21:17:43.660Z,59.98
2023-09-27T21:20:11.363Z,59.96
2023-09-27T21:22:38.607Z,59.85
2023-09-27T21:25:07.198Z,59.80
2023-09-27T21:27:35.101Z,60.01
2023-09-27T21:30:05.988Z,59.97
2023-09-27T21:32:33.524Z,59.83
2023-09-27T21:35:00.752Z,59.81
2023-09-27T21:37:27.946Z,59.79
2023-09-27T21:39:54.953Z,59.69
2023-09-27T21:42:22.395Z,59.80
2023-09-27T21:44:49.470Z,60.03
2023-09-27T21:47:16.873Z,59.92
2023-09-27T21:49:43.997Z,59.82
2023-09-27T21:52:11.591Z,59.79
2023-09-27T21:54:38.770Z,59.71
2023-09-27T21:57:05.945Z,60.02
2023-09-27T21:59:33.084Z,59.73
2023-09-27T22:02:00.291Z,59.86
2023-09-27T22:04:27.826Z,59.68
2023-09-27T22:06:54.884Z,59.43
2023-09-27T22:09:23.921Z,59.44
2023-09-27T22:11:53.332Z,59.22
2023-09-27T22:14:21.348Z,59.19
2023-09-27T22:16:49.331Z,59.27
2023-09-27T22:19:18.221Z,59.30
2023-09-27T22:21:47.518Z,59.29
2023-09-27T22:24:16.826Z,59.27
2023-09-27T22:26:47.104Z,59.17
2023-09-27T22:29:15.403Z,59.27
2023-09-27T22:31:43.705Z,59.31
2023-09-27T22:34:26.287Z,59.44
2023-09-27T22:36:54.527Z,59.56
2023-09-27T22:39:23.120Z,59.52
2023-09-27T22:41:53.554Z,59.67
2023-09-27T22:44:22.072Z,59.65
2023-09-27T22:46:51.243Z,59.71
2023-09-27T22:49:20.414Z,59.59
2023-09-27T22:51:47.770Z,59.74
2023-09-27T22:54:18.267Z,59.73
2023-09-27T22:56:45.967Z,59.68
2023-09-27T22:59:13.262Z,59.75
2023-09-27T23:01:41.352Z,59.93
2023-09-27T23:04:12.437Z,59.97
2023-09-27T23:06:46.028Z,60.04
2023-09-27T23:09:25.762Z,60.22
2023-09-27T23:12:16.692Z,60.37
2023-09-27T23:15:02.432Z,60.48
2023-09-27T23:17:32.252Z,60.57
2023-09-27T23:20:00.302Z,60.55
2023-09-27T23:22:27.913Z,60.98
2023-09-27T23:25:18.171Z,60.94
2023-09-27T23:27:47.982Z,61.02
2023-09-27T23:30:15.579Z,60.99
2023-09-27T23:32:43.847Z,61.21
2023-09-27T23:35:11.236Z,61.36
2023-09-27T23:37:38.689Z,61.37
2023-09-27T23:40:15.565Z,61.52
2023-09-27T23:42:48.338Z,61.35
2023-09-27T23:45:15.793Z,61.40
2023-09-27T23:47:51.037Z,61.38
2023-09-27T23:50:18.915Z,61.43
2023-09-27T23:52:47.519Z,61.20
2023-09-27T23:55:18.469Z,61.21
2023-09-27T23:57:49.290Z,61.19
